KDAY/DAY METAR and TAF weather

Enter ICAO airport designator
Station Type Date Time Source
KDAY METAR 2021/04/18 01:56 UTC NOAA

KDAY 180156Z 24004KT 10SM CLR 09/02 A2992 RMK AO2 SLP133 T00890017


Station Type Date Time Source
KDAY Decoded METAR 2021/04/18 01:56 UTC NOAA

COX DAYTON INTERNATIONAL, OH, United States (KDAY) 39-54N 084-13W 305M
Apr 17, 2021 - 09:56 PM EDT / 2021.04.18 0156 UTC
Wind: from the WSW (240 degrees) at 5 MPH (4 KT):0
Visibility: 10 mile(s):0
Sky conditions: clear
Temperature: 48.0 F (8.9 C)
Dew Point: 35.1 F (1.7 C)
Relative Humidity: 60%
Pressure (altimeter): 29.92 in. Hg (1013 hPa)
ob: KDAY 180156Z 24004KT 10SM CLR 09/02 A2992 RMK AO2 SLP133 T00890017
cycle: 2

Station Type Date Time Source
KDAY TAF 2021/04/17 18:33 UTC NOAA

TAF KDAY 171730Z 1718/1818 29008KT P6SM VCSH OVC060
FM180000 29004KT P6SM SCT060 SCT080
FM180600 32004KT P6SM FEW250
FM181500 30008KT P6SM SCT250

Example: see airport list